createdAt,value
2019-04-09T00:00:12.516Z,13.90
2019-04-09T00:02:52.162Z,15.10
2019-04-09T00:05:18.919Z,16.73
2019-04-09T00:07:56.712Z,18.10
2019-04-09T00:10:12.418Z,16.10
2019-04-09T00:12:40.026Z,15.83
2019-04-09T00:15:05.878Z,16.00
2019-04-09T00:17:32.617Z,15.70
2019-04-09T00:19:59.669Z,16.83
2019-04-09T00:22:26.379Z,16.57
2019-04-09T00:24:53.269Z,15.53
2019-04-09T00:27:20.525Z,16.57
2019-04-09T00:29:46.392Z,16.63
2019-04-09T00:32:13.065Z,17.03
2019-04-09T00:34:40.193Z,15.90
2019-04-09T00:37:06.856Z,17.73
2019-04-09T00:39:33.270Z,19.92
2019-04-09T00:42:00.475Z,19.73
2019-04-09T00:44:26.733Z,18.03
2019-04-09T00:46:53.478Z,16.77
2019-04-09T00:49:21.220Z,18.53
2019-04-09T00:51:47.173Z,16.33
2019-04-09T00:54:14.699Z,16.30
2019-04-09T00:56:40.599Z,16.73
2019-04-09T00:59:07.688Z,15.63
2019-04-09T01:01:34.497Z,15.03
2019-04-09T01:04:01.300Z,16.87
2019-04-09T01:06:27.618Z,14.83
2019-04-09T01:08:54.364Z,14.13
2019-04-09T01:11:22.190Z,14.03
2019-04-09T01:13:48.978Z,16.43
2019-04-09T01:16:15.807Z,15.77
2019-04-09T01:18:43.614Z,14.07
2019-04-09T01:21:09.098Z,14.13
2019-04-09T01:23:35.842Z,14.07
2019-04-09T01:26:09.482Z,14.27
2019-04-09T01:28:44.873Z,13.23
2019-04-09T01:31:30.262Z,13.37
2019-04-09T01:34:08.118Z,14.23
2019-04-09T01:36:53.801Z,14.00
2019-04-09T01:39:26.366Z,13.63
2019-04-09T01:41:58.950Z,14.67
2019-04-09T01:44:30.019Z,16.00
2019-04-09T01:47:15.995Z,19.77
2019-04-09T01:49:54.631Z,19.40
2019-04-09T01:52:28.643Z,19.43
2019-04-09T01:55:15.345Z,21.17
2019-04-09T01:57:50.194Z,18.63
2019-04-09T02:00:28.979Z,18.90
2019-04-09T02:03:09.445Z,17.30
2019-04-09T02:05:56.237Z,17.80
2019-04-09T02:08:44.997Z,19.77
2019-04-09T02:11:22.134Z,19.00
2019-04-09T02:13:57.438Z,17.53
2019-04-09T02:16:30.862Z,17.97
2019-04-09T02:19:19.069Z,18.77
2019-04-09T02:22:06.095Z,19.90
2019-04-09T02:24:47.926Z,23.07
2019-04-09T02:27:40.040Z,20.03
2019-04-09T02:30:08.724Z,22.63
2019-04-09T02:33:00.559Z,21.97
2019-04-09T02:35:32.735Z,25.57
2019-04-09T02:38:21.469Z,22.37
2019-04-09T02:41:00.768Z,24.87
2019-04-09T02:43:46.409Z,24.50
2019-04-09T02:46:20.969Z,24.97
2019-04-09T02:48:55.105Z,23.60
2019-04-09T02:51:46.693Z,29.75
2019-04-09T02:54:23.406Z,26.07
2019-04-09T02:57:10.690Z,24.77
2019-04-09T02:59:54.871Z,24.07
2019-04-09T03:02:36.394Z,22.87
2019-04-09T03:05:11.876Z,22.50
2019-04-09T03:07:46.549Z,24.23
2019-04-09T03:10:33.988Z,23.77
2019-04-09T03:13:18.735Z,23.20
2019-04-09T03:15:52.279Z,25.10
2019-04-09T03:18:32.377Z,25.77
2019-04-09T03:21:06.265Z,24.90
2019-04-09T03:23:41.117Z,28.03
2019-04-09T03:26:22.000Z,34.48
2019-04-09T03:28:59.584Z,31.40
2019-04-09T03:31:32.485Z,28.27
2019-04-09T03:34:04.280Z,28.57
2019-04-09T03:36:48.741Z,29.80
2019-04-09T03:39:35.968Z,30.50
2019-04-09T03:42:12.269Z,36.48
2019-04-09T03:45:00.252Z,32.23
2019-04-09T03:47:38.659Z,31.53
2019-04-09T03:50:33.721Z,30.90
2019-04-09T03:53:09.585Z,29.07
2019-04-09T03:55:53.406Z,32.33
2019-04-09T03:58:25.762Z,30.50
2019-04-09T04:01:06.069Z,28.20
2019-04-09T04:03:40.560Z,28.80
2019-04-09T04:06:17.277Z,30.20
2019-04-09T04:09:02.878Z,27.27
2019-04-09T04:11:35.949Z,27.90
2019-04-09T04:14:22.599Z,27.97
2019-04-09T04:17:03.870Z,26.20
2019-04-09T04:19:39.704Z,31.27
2019-04-09T04:22:14.997Z,29.23
2019-04-09T04:25:01.592Z,27.37
2019-04-09T04:27:51.689Z,28.07
2019-04-09T04:30:32.634Z,30.17
2019-04-09T04:33:05.062Z,28.60
2019-04-09T04:35:38.515Z,35.63
2019-04-09T04:38:16.822Z,30.60
2019-04-09T04:40:53.805Z,29.03
2019-04-09T04:43:25.281Z,31.97
2019-04-09T04:46:02.719Z,29.27
2019-04-09T04:48:35.682Z,26.60
2019-04-09T04:51:08.440Z,32.63
2019-04-09T04:53:49.378Z,63.90
2019-04-09T04:56:41.726Z,42.30
2019-04-09T04:59:14.202Z,32.93
2019-04-09T05:01:46.782Z,29.50
2019-04-09T05:04:25.259Z,26.93
2019-04-09T05:06:59.829Z,29.00
2019-04-09T05:09:35.252Z,39.23
2019-04-09T05:12:23.644Z,34.47
2019-04-09T05:15:01.602Z,27.27
2019-04-09T05:17:38.478Z,29.47
2019-04-09T05:20:17.952Z,28.10
2019-04-09T05:23:07.725Z,28.57
2019-04-09T05:25:59.950Z,27.73
2019-04-09T05:28:52.691Z,26.77
2019-04-09T05:31:21.157Z,28.50
2019-04-09T05:34:03.149Z,25.87
2019-04-09T05:36:40.927Z,26.17
2019-04-09T05:39:17.723Z,33.67
2019-04-09T05:42:04.134Z,28.13
2019-04-09T05:44:45.345Z,26.90
2019-04-09T05:47:18.611Z,27.77
2019-04-09T05:49:50.347Z,26.87
2019-04-09T05:52:39.473Z,27.60
2019-04-09T05:55:17.710Z,33.40
2019-04-09T05:58:05.516Z,29.70
2019-04-09T06:00:42.082Z,27.90
2019-04-09T06:03:22.326Z,28.20
2019-04-09T06:06:00.926Z,26.17
2019-04-09T06:08:35.118Z,28.10
2019-04-09T06:11:01.785Z,28.70
2019-04-09T06:13:29.317Z,27.27
2019-04-09T06:15:55.365Z,26.83
2019-04-09T06:18:21.979Z,27.67
2019-04-09T06:20:48.695Z,26.53
2019-04-09T06:23:16.147Z,25.83
2019-04-09T06:25:42.147Z,27.13
2019-04-09T06:28:10.697Z,25.40
2019-04-09T06:30:35.823Z,23.93
2019-04-09T06:33:10.068Z,26.27
2019-04-09T06:35:41.658Z,28.07
2019-04-09T06:38:21.758Z,26.03
2019-04-09T06:40:59.169Z,31.82
2019-04-09T06:43:30.943Z,31.03
2019-04-09T06:46:08.673Z,29.37
2019-04-09T06:48:56.042Z,28.33
2019-04-09T06:51:36.786Z,28.37
2019-04-09T06:54:20.358Z,28.63
2019-04-09T06:57:07.436Z,28.87
2019-04-09T06:59:39.813Z,29.33
2019-04-09T07:02:11.746Z,29.97
2019-04-09T07:04:50.349Z,29.63
2019-04-09T07:07:24.805Z,30.47
2019-04-09T07:10:00.534Z,32.53
2019-04-09T07:12:40.870Z,31.27
2019-04-09T07:15:34.248Z,31.80
2019-04-09T07:18:11.849Z,30.07
2019-04-09T07:20:48.881Z,30.07
2019-04-09T07:23:21.786Z,29.20
2019-04-09T07:25:58.535Z,26.40
2019-04-09T07:28:31.702Z,27.97
2019-04-09T07:31:06.169Z,28.40
2019-04-09T07:33:47.601Z,27.20
2019-04-09T07:36:34.357Z,27.70
2019-04-09T07:39:08.321Z,29.20
2019-04-09T07:41:57.611Z,27.57
2019-04-09T07:44:45.972Z,27.77
2019-04-09T07:47:22.025Z,28.00
2019-04-09T07:49:55.620Z,27.60
2019-04-09T07:52:27.046Z,29.27
2019-04-09T07:55:00.371Z,34.58
2019-04-09T07:57:42.619Z,33.50
2019-04-09T08:00:20.507Z,30.50
2019-04-09T08:02:48.116Z,29.67
2019-04-09T08:05:33.530Z,35.50
2019-04-09T08:08:21.065Z,32.20
2019-04-09T08:11:09.131Z,32.30
2019-04-09T08:13:45.816Z,30.70
2019-04-09T08:16:17.802Z,36.50
2019-04-09T08:18:53.537Z,35.88
2019-04-09T08:21:40.493Z,32.07
2019-04-09T08:24:26.359Z,30.43
2019-04-09T08:26:59.523Z,32.23
2019-04-09T08:29:49.237Z,33.10
2019-04-09T08:32:32.014Z,30.13
2019-04-09T08:35:06.254Z,30.77
2019-04-09T08:37:44.364Z,36.17
2019-04-09T08:40:17.743Z,31.97
2019-04-09T08:43:01.750Z,32.90
2019-04-09T08:45:32.718Z,36.93
2019-04-09T08:48:11.790Z,36.90
2019-04-09T08:50:51.116Z,30.40
2019-04-09T08:53:30.222Z,33.80
2019-04-09T08:56:06.314Z,33.30
2019-04-09T08:58:35.537Z,31.47
2019-04-09T09:03:49.396Z,33.37
2019-04-09T09:06:17.610Z,32.70
2019-04-09T09:08:49.081Z,30.23
2019-04-09T09:11:39.129Z,29.27
2019-04-09T09:14:13.801Z,29.47
2019-04-09T09:16:54.281Z,29.07
2019-04-09T09:19:31.997Z,28.73
2019-04-09T09:22:20.980Z,27.03
2019-04-09T09:24:58.377Z,29.47
2019-04-09T09:27:41.886Z,31.10
2019-04-09T09:30:18.186Z,28.60
2019-04-09T09:32:57.756Z,29.73
2019-04-09T09:35:34.690Z,27.30
2019-04-09T09:38:13.631Z,31.27
2019-04-09T09:41:02.691Z,28.80
2019-04-09T09:43:39.400Z,25.13
2019-04-09T09:46:26.482Z,28.90
2019-04-09T09:49:01.007Z,27.00
2019-04-09T09:51:33.413Z,28.63
2019-04-09T09:54:06.922Z,28.90
2019-04-09T09:56:43.325Z,31.30
2019-04-09T09:59:28.340Z,31.97
2019-04-09T10:02:03.457Z,30.50
2019-04-09T10:04:38.954Z,28.33
2019-04-09T10:07:37.624Z,28.63
2019-04-09T10:10:05.311Z,25.53
2019-04-09T10:12:54.398Z,29.63
2019-04-09T10:15:25.321Z,28.67
2019-04-09T10:18:02.903Z,27.87
2019-04-09T10:20:37.939Z,26.57
2019-04-09T10:23:29.282Z,30.37
2019-04-09T10:26:07.140Z,26.90
2019-04-09T10:28:38.471Z,30.20
2019-04-09T10:31:24.624Z,29.20
2019-04-09T10:33:50.552Z,27.20
2019-04-09T10:36:37.859Z,27.20
2019-04-09T10:39:17.930Z,27.83
2019-04-09T10:41:56.310Z,32.45
2019-04-09T10:44:42.434Z,30.50
2019-04-09T10:47:30.951Z,32.95
2019-04-09T10:50:07.925Z,28.37
2019-04-09T10:52:54.218Z,26.77
2019-04-09T10:55:38.274Z,26.10
2019-04-09T10:58:22.516Z,25.93
2019-04-09T11:00:54.632Z,25.80
2019-04-09T11:03:35.733Z,29.07
2019-04-09T11:06:18.137Z,29.97
2019-04-09T11:08:55.586Z,32.60
2019-04-09T11:11:30.965Z,30.00
2019-04-09T11:14:19.388Z,32.20
2019-04-09T11:16:52.669Z,29.20
2019-04-09T11:19:29.415Z,29.80
2019-04-09T11:22:05.983Z,28.37
2019-04-09T11:24:50.260Z,29.23
2019-04-09T11:27:20.637Z,29.23
2019-04-09T11:29:55.477Z,29.93
2019-04-09T11:32:31.994Z,30.20
2019-04-09T11:35:10.338Z,28.10
2019-04-09T11:37:59.198Z,32.85
2019-04-09T11:40:34.874Z,31.60
2019-04-09T11:43:22.453Z,30.63
2019-04-09T11:46:04.459Z,28.20
2019-04-09T11:48:45.646Z,30.07
2019-04-09T11:51:15.213Z,29.03
2019-04-09T11:54:04.220Z,28.57
2019-04-09T11:56:56.068Z,30.27
2019-04-09T11:59:41.457Z,29.13
2019-04-09T12:02:14.990Z,29.20
2019-04-09T12:04:50.563Z,29.17
2019-04-09T12:07:24.730Z,28.80
2019-04-09T12:10:01.669Z,28.37
2019-04-09T12:12:33.800Z,25.30
2019-04-09T12:15:16.544Z,27.80
2019-04-09T12:17:48.986Z,28.87
2019-04-09T12:20:38.336Z,28.37
2019-04-09T12:23:09.985Z,31.05
2019-04-09T12:25:58.065Z,27.87
2019-04-09T12:28:35.649Z,27.17
2019-04-09T12:31:14.209Z,28.23
2019-04-09T12:33:49.504Z,30.20
2019-04-09T12:36:21.592Z,26.70
2019-04-09T12:39:09.861Z,26.50
2019-04-09T12:41:50.566Z,28.17
2019-04-09T12:44:33.934Z,23.87
2019-04-09T12:47:06.009Z,26.07
2019-04-09T12:49:58.285Z,23.83
2019-04-09T12:52:48.206Z,23.13
2019-04-09T12:55:37.279Z,24.90
2019-04-09T12:58:18.610Z,22.20
2019-04-09T13:00:54.882Z,24.77
2019-04-09T13:03:40.917Z,25.07
2019-04-09T13:06:29.627Z,24.90
2019-04-09T13:09:04.375Z,24.70
2019-04-09T13:11:43.943Z,22.23
2019-04-09T13:14:31.244Z,23.20
2019-04-09T13:17:02.853Z,23.50
2019-04-09T13:19:39.734Z,27.32
2019-04-09T13:22:19.497Z,25.10
2019-04-09T13:25:06.988Z,23.37
2019-04-09T13:27:44.907Z,24.00
2019-04-09T13:30:17.764Z,22.70
2019-04-09T13:32:54.013Z,23.13
2019-04-09T13:35:26.116Z,20.80
2019-04-09T13:38:15.934Z,23.70
2019-04-09T13:40:50.082Z,23.60
2019-04-09T13:43:25.824Z,21.80
2019-04-09T13:46:00.246Z,21.43
2019-04-09T13:48:41.418Z,23.67
2019-04-09T13:51:18.634Z,24.20
2019-04-09T13:53:45.365Z,29.12
2019-04-09T13:56:12.598Z,25.60
2019-04-09T13:58:39.359Z,24.80
2019-04-09T14:01:06.187Z,23.47
2019-04-09T14:03:41.858Z,24.60
2019-04-09T14:06:06.558Z,25.27
2019-04-09T14:08:33.231Z,24.30
2019-04-09T14:11:01.354Z,25.13
2019-04-09T14:13:27.734Z,24.90
2019-04-09T14:15:54.375Z,24.47
2019-04-09T14:18:20.375Z,26.40
2019-04-09T14:20:47.632Z,25.00
2019-04-09T14:23:13.854Z,21.73
2019-04-09T14:25:41.393Z,23.53
2019-04-09T14:28:07.872Z,22.13
2019-04-09T14:30:34.669Z,22.90
2019-04-09T14:33:07.096Z,21.47
2019-04-09T14:35:27.783Z,22.58
2019-04-09T14:37:55.414Z,20.70
2019-04-09T14:40:21.266Z,19.80
2019-04-09T14:42:48.030Z,22.20
2019-04-09T14:45:14.751Z,22.90
2019-04-09T14:47:43.803Z,22.40
2019-04-09T14:50:09.382Z,20.07
2019-04-09T14:52:35.142Z,18.63
2019-04-09T14:55:01.886Z,20.13
2019-04-09T14:57:29.115Z,20.13
2019-04-09T14:59:55.374Z,18.97
2019-04-09T15:02:22.234Z,19.67
2019-04-09T15:04:49.051Z,20.50
2019-04-09T15:07:15.996Z,18.93
2019-04-09T15:09:43.492Z,19.07
2019-04-09T15:12:09.400Z,19.30
2019-04-09T15:14:36.216Z,18.87
2019-04-09T15:17:04.058Z,19.23
2019-04-09T15:19:29.831Z,18.73
2019-04-09T15:22:00.286Z,19.37
2019-04-09T15:24:27.967Z,20.57
2019-04-09T15:26:54.682Z,20.20
2019-04-09T15:29:21.045Z,20.43
2019-04-09T15:31:47.318Z,18.57
2019-04-09T15:34:14.092Z,20.53
2019-04-09T15:36:40.863Z,26.10
2019-04-09T15:39:12.409Z,25.53
2019-04-09T15:41:39.138Z,22.60
2019-04-09T15:44:05.898Z,23.10
2019-04-09T15:46:32.641Z,22.60
2019-04-09T15:48:59.399Z,21.67
2019-04-09T15:51:26.854Z,26.20
2019-04-09T15:53:52.862Z,22.83
2019-04-09T15:56:19.603Z,24.30
2019-04-09T15:58:46.342Z,24.13
2019-04-09T16:01:13.649Z,22.63
2019-04-09T16:03:48.773Z,23.53
2019-04-09T16:06:07.432Z,25.03
2019-04-09T16:08:40.972Z,24.80
2019-04-09T16:11:06.814Z,26.63
2019-04-09T16:13:33.565Z,25.43
2019-04-09T16:16:00.850Z,25.40
2019-04-09T16:18:27.042Z,25.33
2019-04-09T16:20:54.786Z,26.27
2019-04-09T16:23:20.619Z,25.03
2019-04-09T16:25:47.302Z,28.70
2019-04-09T16:28:15.093Z,47.90
2019-04-09T16:30:41.974Z,29.33
2019-04-09T16:33:13.060Z,29.33
2019-04-09T16:35:34.252Z,29.40
2019-04-09T16:38:01.854Z,28.90
2019-04-09T16:40:28.688Z,27.00
2019-04-09T16:42:59.298Z,28.10
2019-04-09T16:45:25.375Z,49.75
2019-04-09T16:47:51.791Z,53.30
2019-04-09T16:50:18.969Z,97.73
2019-04-09T16:52:45.278Z,96.33
2019-04-09T16:55:13.696Z,57.33
2019-04-09T16:57:38.746Z,47.67
2019-04-09T17:00:07.450Z,37.07
2019-04-09T17:02:34.255Z,36.50
2019-04-09T17:05:00.192Z,35.03
2019-04-09T17:07:28.038Z,34.10
2019-04-09T17:09:54.007Z,24.40
2019-04-09T17:12:20.440Z,24.20
2019-04-09T17:14:48.010Z,28.50
2019-04-09T17:17:13.903Z,26.83
2019-04-09T17:19:41.584Z,28.47
2019-04-09T17:22:07.889Z,26.27
2019-04-09T17:24:34.953Z,39.20
2019-04-09T17:27:00.878Z,34.33
2019-04-09T17:29:28.805Z,24.60
2019-04-09T17:31:54.617Z,22.83
2019-04-09T17:34:27.637Z,22.03
2019-04-09T17:36:48.809Z,22.20
2019-04-09T17:39:14.930Z,22.80
2019-04-09T17:41:41.310Z,22.63
2019-04-09T17:44:08.751Z,21.90
2019-04-09T17:46:34.786Z,23.40
2019-04-09T17:49:01.545Z,23.70
2019-04-09T17:51:28.359Z,22.77
2019-04-09T17:53:55.316Z,22.57
2019-04-09T17:56:21.830Z,23.47
2019-04-09T17:58:49.266Z,21.83
2019-04-09T18:01:15.341Z,26.20
2019-04-09T18:03:42.080Z,21.70
2019-04-09T18:06:08.825Z,21.80
2019-04-09T18:08:35.582Z,24.30
2019-04-09T18:11:02.346Z,21.87
2019-04-09T18:13:29.697Z,22.87
2019-04-09T18:15:56.039Z,22.97
2019-04-09T18:18:23.226Z,20.90
2019-04-09T18:20:50.019Z,23.63
2019-04-09T18:23:16.067Z,22.57
2019-04-09T18:25:53.162Z,24.73
2019-04-09T18:28:09.928Z,24.20
2019-04-09T18:30:36.229Z,25.55
2019-04-09T18:33:03.549Z,25.50
2019-04-09T18:35:30.155Z,26.75
2019-04-09T18:37:56.762Z,25.50
2019-04-09T18:40:23.179Z,23.50
2019-04-09T18:42:50.518Z,24.27
2019-04-09T18:45:16.649Z,22.90
2019-04-09T18:47:44.215Z,22.73
2019-04-09T18:50:10.800Z,23.40
2019-04-09T18:52:36.850Z,24.27
2019-04-09T18:55:04.269Z,23.87
2019-04-09T18:57:30.921Z,25.13
2019-04-09T18:59:57.873Z,23.07
2019-04-09T19:02:24.933Z,22.83
2019-04-09T19:05:02.667Z,24.00
2019-04-09T19:07:17.907Z,21.87
2019-04-09T19:09:44.650Z,22.77
2019-04-09T19:12:12.103Z,21.53
2019-04-09T19:14:38.128Z,20.20
2019-04-09T19:17:04.846Z,21.30
2019-04-09T19:19:32.194Z,22.40
2019-04-09T19:21:59.017Z,23.60
2019-04-09T19:24:25.124Z,23.07
2019-04-09T19:26:52.716Z,25.43
2019-04-09T19:29:18.583Z,25.83
2019-04-09T19:31:45.389Z,24.07
2019-04-09T19:34:12.945Z,23.50
2019-04-09T19:36:38.840Z,26.03
2019-04-09T19:39:05.838Z,23.50
2019-04-09T19:41:32.558Z,22.93
2019-04-09T19:43:59.308Z,23.67
2019-04-09T19:46:26.878Z,26.33
2019-04-09T19:48:52.827Z,25.90
2019-04-09T19:51:19.580Z,25.60
2019-04-09T19:53:46.440Z,23.43
2019-04-09T19:56:13.163Z,23.70
2019-04-09T19:58:46.486Z,22.43
2019-04-09T20:01:06.481Z,21.43
2019-04-09T20:03:33.678Z,21.83
2019-04-09T20:05:59.934Z,21.77
2019-04-09T20:08:27.158Z,22.83
2019-04-09T20:10:53.392Z,25.90
2019-04-09T20:13:20.123Z,21.73
2019-04-09T20:15:46.877Z,21.83
2019-04-09T20:18:13.616Z,21.50
2019-04-09T20:20:41.034Z,21.57
2019-04-09T20:23:07.730Z,23.40
2019-04-09T20:25:33.926Z,23.27
2019-04-09T20:28:01.453Z,23.27
2019-04-09T20:30:27.956Z,26.70
2019-04-09T20:32:54.918Z,25.70
2019-04-09T20:35:21.015Z,28.62
2019-04-09T20:37:47.637Z,23.80
2019-04-09T20:40:17.387Z,27.67
2019-04-09T20:42:41.460Z,22.90
2019-04-09T20:45:08.744Z,24.70
2019-04-09T20:47:35.109Z,23.17
2019-04-09T20:50:01.515Z,23.40
2019-04-09T20:52:28.245Z,23.97
2019-04-09T20:54:58.125Z,24.60
2019-04-09T20:57:25.952Z,23.47
2019-04-09T21:00:09.317Z,25.80
2019-04-09T21:02:38.419Z,32.30
2019-04-09T21:05:05.596Z,29.23
2019-04-09T21:07:32.027Z,27.60
2019-04-09T21:09:59.860Z,27.10
2019-04-09T21:12:25.393Z,28.13
2019-04-09T21:14:53.479Z,27.10
2019-04-09T21:17:19.693Z,28.97
2019-04-09T21:19:46.260Z,26.33
2019-04-09T21:22:12.441Z,28.40
2019-04-09T21:24:39.575Z,28.53
2019-04-09T21:27:05.772Z,24.40
2019-04-09T21:29:32.972Z,28.73
2019-04-09T21:31:59.993Z,29.43
2019-04-09T21:34:26.430Z,28.20
2019-04-09T21:36:52.805Z,29.60
2019-04-09T21:39:19.544Z,27.00
2019-04-09T21:41:46.559Z,26.20
2019-04-09T21:44:12.998Z,26.80
2019-04-09T21:46:39.723Z,29.10
2019-04-09T21:49:07.394Z,26.77
2019-04-09T21:51:33.432Z,28.73
2019-04-09T21:54:02.838Z,27.80
2019-04-09T21:56:26.658Z,29.30
2019-04-09T21:58:53.382Z,28.27
2019-04-09T22:01:21.039Z,30.77
2019-04-09T22:03:46.849Z,28.10
2019-04-09T22:06:23.352Z,28.50
2019-04-09T22:08:40.486Z,28.53
2019-04-09T22:11:07.206Z,28.40
2019-04-09T22:13:33.945Z,36.55
2019-04-09T22:16:01.799Z,37.63
2019-04-09T22:18:28.370Z,36.05
2019-04-09T22:20:54.191Z,36.50
2019-04-09T22:23:20.890Z,30.70
2019-04-09T22:25:47.673Z,26.97
2019-04-09T22:28:14.364Z,26.10
2019-04-09T22:30:41.284Z,26.20
2019-04-09T22:33:11.762Z,27.50
2019-04-09T22:35:35.378Z,27.77
2019-04-09T22:38:01.713Z,31.13
2019-04-09T22:40:28.711Z,29.40
2019-04-09T22:42:55.833Z,29.37
2019-04-09T22:45:21.622Z,28.27
2019-04-09T22:47:49.254Z,28.03
2019-04-09T22:50:15.553Z,28.10
2019-04-09T22:52:41.801Z,29.73
2019-04-09T22:55:09.764Z,29.80
2019-04-09T22:57:35.955Z,36.58
2019-04-09T23:00:02.184Z,32.27
2019-04-09T23:02:40.862Z,32.70
2019-04-09T23:05:16.008Z,36.40
2019-04-09T23:07:48.406Z,32.87
2019-04-09T23:10:25.948Z,32.10
2019-04-09T23:12:54.171Z,37.25
2019-04-09T23:15:25.363Z,32.40
2019-04-09T23:17:52.465Z,34.40
2019-04-09T23:20:18.695Z,32.53
2019-04-09T23:22:44.942Z,31.23
2019-04-09T23:25:12.650Z,31.93
2019-04-09T23:27:38.815Z,32.20
2019-04-09T23:30:05.838Z,30.87
2019-04-09T23:32:32.026Z,32.80
2019-04-09T23:34:58.795Z,32.70
2019-04-09T23:37:25.785Z,32.33
2019-04-09T23:39:52.939Z,31.80
2019-04-09T23:42:19.033Z,31.57
2019-04-09T23:44:45.990Z,30.93
2019-04-09T23:47:13.117Z,31.50
2019-04-09T23:49:39.263Z,30.80
2019-04-09T23:52:06.052Z,32.00
2019-04-09T23:54:32.574Z,31.07
2019-04-09T23:57:00.103Z,30.67
2019-04-09T23:59:26.205Z,30.97
